Impacts TAF Board
For situational awareness. Not to be used for flight planning purposes.
IDs:

KPHL - Philadelphia Intl, PA, US

Issued at 2327 UTC 22 Oct 2018
Updated at 0352 UTC 23 Oct 2018
Potential Impact None Slight Moderate High
Time0254Z 23/04Z 23/05Z 23/06Z 23/07Z 23/08Z 23/09Z 23/10Z 23/11Z 23/12Z 23/13Z 23/14Z 23/15Z 23/16Z>>
Type OBS PRVL PRVL PRVL PRVL PRVL PRVL PRVL PRVL PRVL PRVL PRVL PRVL PRVL
VIS 10 >6 >6 >6 >6 >6 >6 >6 >6 >6 >6 >6 >6 >6
CIG 75 200 200 70 70 70 -- -- -- -- -- -- -- --
Cover OVC BKN BKN BKN BKN BKN SCT SCT SCT SCT SCT SCT SCT SCT
FltCat VFR VFR VFR VFR VFR VFR VFR VFR VFR VFR VFR VFR VFR VFR
WX -- -- -- -- -- -- -- -- -- -- -- -- -- --
WDir 200 200 200 200 200 200 230 230 230 230 230 230 240 240
WSpd 7 7 7 5 5 5 5 5 5 5 5 5 10 10
WGst -- -- -- -- -- -- -- -- -- -- -- -- -- --
Raw TAF
KPHL 222327Z 2300/2406 20007KT P6SM BKN200
  FM230600 20005KT P6SM BKN070
  FM230900 23005KT P6SM SCT120
  FM231500 24010KT P6SM SCT250
  FM231800 26012G20KT P6SM SCT060
  FM232300 29010G18KT P6SM FEW060
  FM240300 29010KT P6SM SCT250


Raw METAR
KPHL 230254Z 20007KT 180V250 10SM BKN075 BKN180 OVC240 09/03 A3018 RMK AO2 SLP218 T00940033 58001 $
KPHL 230154Z 20005KT 10SM BKN200 BKN240 10/03 A3018 RMK AO2 SLP220 T01000028 $
KPHL 230054Z 19006KT 10SM OVC200 10/02 A3018 RMK AO2 SLP220 T01000022 $

METAR Board
Radar Display
Forecast Discussion
For situational awareness. Not to be used for flight planning purposes.